Smithton, Missouri
Current Conditions -  °F | °C
As of 12:53 PM on Wednesday 26 Nov 2014 (Local Time) from KDMO Reporting Station
Overcast Overcast  
Wind Chill: 34°   Ceiling: 2600
Heat Index: 42°   Visibility: 10mi
Dew Point: 32°   Wind: 16mph
Humidity: 67%   Direction: 300°WNW
Pressure: 29.97"   Gusts: 26mph
Location:  38.68°N, 93.09°W
Report Text: KDMO 261853Z AUTO 30014G23KT 10SM BKN026 BKN034 OVC041 06/00 A2997 RMK AO2 PK WND 29027/1827 SLP154 T00560000
Loading
Personal Weather Stations






























Interactive Weather Map New forecast layout! Learn more

10-Day Weather Forecast

Advertisements
Track Severe Weather on mobile